sensor_id;sensor_type;location;lat;lon;timestamp;temperature;humidity
25536;DHT22;13431;51.352;6.412;2022-11-15T00:01:48;9.10;99.90
25536;DHT22;13431;51.352;6.412;2022-11-15T00:04:34;9.10;99.90
25536;DHT22;13431;51.352;6.412;2022-11-15T00:07:20;9.10;99.90
25536;DHT22;13431;51.352;6.412;2022-11-15T00:10:26;9.10;99.90
25536;DHT22;13431;51.352;6.412;2022-11-15T00:13:13;9.20;99.90
25536;DHT22;13431;51.352;6.412;2022-11-15T00:16:00;9.20;99.90
25536;DHT22;13431;51.352;6.412;2022-11-15T00:18:46;9.20;99.90
25536;DHT22;13431;51.352;6.412;2022-11-15T00:21:35;9.20;99.90
25536;DHT22;13431;51.352;6.412;2022-11-15T00:24:22;9.20;99.90
25536;DHT22;13431;51.352;6.412;2022-11-15T00:27:08;9.20;99.90
25536;DHT22;13431;51.352;6.412;2022-11-15T00:29:54;9.20;99.90
25536;DHT22;13431;51.352;6.412;2022-11-15T00:32:40;9.20;99.90
25536;DHT22;13431;51.352;6.412;2022-11-15T00:35:26;9.30;99.90
25536;DHT22;13431;51.352;6.412;2022-11-15T00:38:12;9.30;99.90
25536;DHT22;13431;51.352;6.412;2022-11-15T00:40:59;9.20;99.90
25536;DHT22;13431;51.352;6.412;2022-11-15T00:43:51;9.20;99.90
25536;DHT22;13431;51.352;6.412;2022-11-15T00:46:37;9.20;99.90
25536;DHT22;13431;51.352;6.412;2022-11-15T00:49:29;9.20;99.90
25536;DHT22;13431;51.352;6.412;2022-11-15T00:52:15;9.20;99.90
25536;DHT22;13431;51.352;6.412;2022-11-15T00:55:01;9.20;99.90
25536;DHT22;13431;51.352;6.412;2022-11-15T00:57:47;9.30;99.90
25536;DHT22;13431;51.352;6.412;2022-11-15T01:00:33;9.30;99.90
25536;DHT22;13431;51.352;6.412;2022-11-15T01:03:19;9.30;99.90
25536;DHT22;13431;51.352;6.412;2022-11-15T01:06:05;9.30;99.90
25536;DHT22;13431;51.352;6.412;2022-11-15T01:08:52;9.40;99.90
25536;DHT22;13431;51.352;6.412;2022-11-15T01:11:38;9.40;99.90
25536;DHT22;13431;51.352;6.412;2022-11-15T01:14:23;9.30;99.90
25536;DHT22;13431;51.352;6.412;2022-11-15T01:17:10;9.30;99.90
25536;DHT22;13431;51.352;6.412;2022-11-15T01:19:56;9.30;99.90
25536;DHT22;13431;51.352;6.412;2022-11-15T01:22:42;9.30;99.90
25536;DHT22;13431;51.352;6.412;2022-11-15T01:25:28;9.40;99.90
25536;DHT22;13431;51.352;6.412;2022-11-15T01:28:14;9.40;99.90
25536;DHT22;13431;51.352;6.412;2022-11-15T01:31:05;9.50;99.90
25536;DHT22;13431;51.352;6.412;2022-11-15T01:33:51;9.50;99.90
25536;DHT22;13431;51.352;6.412;2022-11-15T01:36:37;9.40;99.90
25536;DHT22;13431;51.352;6.412;2022-11-15T01:39:23;9.40;99.90
25536;DHT22;13431;51.352;6.412;2022-11-15T01:42:13;9.40;99.90
25536;DHT22;13431;51.352;6.412;2022-11-15T01:44:59;9.40;99.90
25536;DHT22;13431;51.352;6.412;2022-11-15T01:47:54;9.50;99.90
25536;DHT22;13431;51.352;6.412;2022-11-15T01:50:40;9.60;99.90
25536;DHT22;13431;51.352;6.412;2022-11-15T01:53:26;9.60;99.90
25536;DHT22;13431;51.352;6.412;2022-11-15T01:56:18;9.60;99.90
25536;DHT22;13431;51.352;6.412;2022-11-15T01:59:06;9.60;99.90
25536;DHT22;13431;51.352;6.412;2022-11-15T02:01:54;9.70;99.90
25536;DHT22;13431;51.352;6.412;2022-11-15T02:04:45;9.70;99.90
25536;DHT22;13431;51.352;6.412;2022-11-15T02:07:32;9.70;99.90
25536;DHT22;13431;51.352;6.412;2022-11-15T02:10:22;9.80;99.90
25536;DHT22;13431;51.352;6.412;2022-11-15T02:13:09;9.90;99.90
25536;DHT22;13431;51.352;6.412;2022-11-15T02:22:13;10.00;99.90
25536;DHT22;13431;51.352;6.412;2022-11-15T02:41:02;10.20;99.90
25536;DHT22;13431;51.352;6.412;2022-11-15T02:44:13;10.30;99.90
25536;DHT22;13431;51.352;6.412;2022-11-15T02:47:04;10.30;99.90
25536;DHT22;13431;51.352;6.412;2022-11-15T02:50:02;10.40;99.90
25536;DHT22;13431;51.352;6.412;2022-11-15T02:52:51;10.40;99.90
25536;DHT22;13431;51.352;6.412;2022-11-15T02:55:44;10.40;99.90
25536;DHT22;13431;51.352;6.412;2022-11-15T03:01:48;10.40;99.90
25536;DHT22;13431;51.352;6.412;2022-11-15T03:08:08;10.50;99.90
25536;DHT22;13431;51.352;6.412;2022-11-15T03:16:41;10.60;99.90
25536;DHT22;13431;51.352;6.412;2022-11-15T03:19:44;10.60;99.90
25536;DHT22;13431;51.352;6.412;2022-11-15T03:22:38;10.60;99.90
25536;DHT22;13431;51.352;6.412;2022-11-15T03:25:25;10.70;99.90
25536;DHT22;13431;51.352;6.412;2022-11-15T03:28:18;10.70;99.90
25536;DHT22;13431;51.352;6.412;2022-11-15T03:31:09;10.70;99.90
25536;DHT22;13431;51.352;6.412;2022-11-15T03:34:29;10.80;99.90
25536;DHT22;13431;51.352;6.412;2022-11-15T03:37:16;10.80;99.90
25536;DHT22;13431;51.352;6.412;2022-11-15T03:40:03;10.80;99.90
25536;DHT22;13431;51.352;6.412;2022-11-15T03:43:02;10.80;99.90
25536;DHT22;13431;51.352;6.412;2022-11-15T03:45:55;10.80;99.90
25536;DHT22;13431;51.352;6.412;2022-11-15T03:49:07;10.80;99.90
25536;DHT22;13431;51.352;6.412;2022-11-15T03:51:57;10.90;99.90
25536;DHT22;13431;51.352;6.412;2022-11-15T03:54:54;10.80;99.90
25536;DHT22;13431;51.352;6.412;2022-11-15T03:57:41;10.80;99.90
25536;DHT22;13431;51.352;6.412;2022-11-15T04:00:28;10.80;99.90
25536;DHT22;13431;51.352;6.412;2022-11-15T04:03:14;10.80;99.90
25536;DHT22;13431;51.352;6.412;2022-11-15T04:06:00;10.70;99.90
25536;DHT22;13431;51.352;6.412;2022-11-15T04:08:46;10.70;99.90
25536;DHT22;13431;51.352;6.412;2022-11-15T04:11:31;10.70;99.90
25536;DHT22;13431;51.352;6.412;2022-11-15T04:14:18;10.70;99.90
25536;DHT22;13431;51.352;6.412;2022-11-15T04:17:04;10.70;99.90
25536;DHT22;13431;51.352;6.412;2022-11-15T04:19:50;10.70;99.90
25536;DHT22;13431;51.352;6.412;2022-11-15T04:22:59;10.70;99.90
25536;DHT22;13431;51.352;6.412;2022-11-15T04:26:08;10.70;99.90
25536;DHT22;13431;51.352;6.412;2022-11-15T04:28:55;10.70;99.90
25536;DHT22;13431;51.352;6.412;2022-11-15T04:32:02;10.70;99.90
25536;DHT22;13431;51.352;6.412;2022-11-15T04:34:48;10.70;99.90
25536;DHT22;13431;51.352;6.412;2022-11-15T04:37:34;10.70;99.90
25536;DHT22;13431;51.352;6.412;2022-11-15T04:40:20;10.80;99.90
25536;DHT22;13431;51.352;6.412;2022-11-15T04:43:06;10.80;99.90
25536;DHT22;13431;51.352;6.412;2022-11-15T04:45:52;10.80;99.90
25536;DHT22;13431;51.352;6.412;2022-11-15T04:48:38;10.80;99.90
25536;DHT22;13431;51.352;6.412;2022-11-15T04:51:24;10.80;99.90
25536;DHT22;13431;51.352;6.412;2022-11-15T04:54:10;10.80;99.90
25536;DHT22;13431;51.352;6.412;2022-11-15T04:56:56;10.80;99.90
25536;DHT22;13431;51.352;6.412;2022-11-15T04:59:42;10.90;99.90
25536;DHT22;13431;51.352;6.412;2022-11-15T05:02:28;10.90;99.90
25536;DHT22;13431;51.352;6.412;2022-11-15T05:05:33;10.90;99.90
25536;DHT22;13431;51.352;6.412;2022-11-15T05:08:19;10.90;99.90
25536;DHT22;13431;51.352;6.412;2022-11-15T05:11:05;10.90;99.90
25536;DHT22;13431;51.352;6.412;2022-11-15T05:13:51;10.90;99.90
25536;DHT22;13431;51.352;6.412;2022-11-15T05:16:37;10.90;99.90
25536;DHT22;13431;51.352;6.412;2022-11-15T05:19:23;10.90;99.90
25536;DHT22;13431;51.352;6.412;2022-11-15T05:22:09;10.80;99.90
25536;DHT22;13431;51.352;6.412;2022-11-15T05:24:55;10.80;99.90
25536;DHT22;13431;51.352;6.412;2022-11-15T05:27:41;10.80;99.90
25536;DHT22;13431;51.352;6.412;2022-11-15T05:30:27;10.70;99.90
25536;DHT22;13431;51.352;6.412;2022-11-15T05:33:13;10.70;99.90
25536;DHT22;13431;51.352;6.412;2022-11-15T05:39:08;10.80;99.90
25536;DHT22;13431;51.352;6.412;2022-11-15T05:42:21;10.80;99.90
25536;DHT22;13431;51.352;6.412;2022-11-15T05:45:08;10.80;99.90
25536;DHT22;13431;51.352;6.412;2022-11-15T05:47:55;10.80;99.90
25536;DHT22;13431;51.352;6.412;2022-11-15T05:50:45;10.80;99.90
25536;DHT22;13431;51.352;6.412;2022-11-15T05:53:32;10.80;99.90
25536;DHT22;13431;51.352;6.412;2022-11-15T05:56:18;10.80;99.90
25536;DHT22;13431;51.352;6.412;2022-11-15T05:59:05;10.90;99.90
25536;DHT22;13431;51.352;6.412;2022-11-15T06:01:53;10.90;99.90
25536;DHT22;13431;51.352;6.412;2022-11-15T06:04:38;10.90;99.90
25536;DHT22;13431;51.352;6.412;2022-11-15T06:07:25;10.90;99.90
25536;DHT22;13431;51.352;6.412;2022-11-15T06:10:11;11.00;99.90
25536;DHT22;13431;51.352;6.412;2022-11-15T06:13:01;11.00;99.90
25536;DHT22;13431;51.352;6.412;2022-11-15T06:15:47;11.00;99.90
25536;DHT22;13431;51.352;6.412;2022-11-15T06:18:34;11.00;99.90
25536;DHT22;13431;51.352;6.412;2022-11-15T06:21:20;11.00;99.90
25536;DHT22;13431;51.352;6.412;2022-11-15T06:24:06;11.10;99.90
25536;DHT22;13431;51.352;6.412;2022-11-15T06:26:52;11.10;99.90
25536;DHT22;13431;51.352;6.412;2022-11-15T06:29:38;11.10;99.90
25536;DHT22;13431;51.352;6.412;2022-11-15T06:32:24;11.10;99.90
25536;DHT22;13431;51.352;6.412;2022-11-15T06:35:10;11.20;99.90
25536;DHT22;13431;51.352;6.412;2022-11-15T06:38:03;11.20;99.90
25536;DHT22;13431;51.352;6.412;2022-11-15T06:40:49;11.20;99.90
25536;DHT22;13431;51.352;6.412;2022-11-15T06:43:36;11.10;99.90
25536;DHT22;13431;51.352;6.412;2022-11-15T06:46:22;11.00;99.90
25536;DHT22;13431;51.352;6.412;2022-11-15T06:49:08;10.90;99.90
25536;DHT22;13431;51.352;6.412;2022-11-15T06:51:54;10.90;99.90
25536;DHT22;13431;51.352;6.412;2022-11-15T06:54:40;11.00;99.90
25536;DHT22;13431;51.352;6.412;2022-11-15T06:57:26;11.10;99.90
25536;DHT22;13431;51.352;6.412;2022-11-15T07:00:13;11.20;99.90
25536;DHT22;13431;51.352;6.412;2022-11-15T07:03:02;11.30;99.90
25536;DHT22;13431;51.352;6.412;2022-11-15T07:05:53;11.30;99.90
25536;DHT22;13431;51.352;6.412;2022-11-15T07:08:40;11.40;99.90
25536;DHT22;13431;51.352;6.412;2022-11-15T07:11:27;11.40;99.90
25536;DHT22;13431;51.352;6.412;2022-11-15T07:14:13;11.40;99.90
25536;DHT22;13431;51.352;6.412;2022-11-15T07:16:59;11.40;99.90
25536;DHT22;13431;51.352;6.412;2022-11-15T07:19:45;11.40;99.90
25536;DHT22;13431;51.352;6.412;2022-11-15T07:22:31;11.50;99.90
25536;DHT22;13431;51.352;6.412;2022-11-15T07:25:17;11.50;99.90
25536;DHT22;13431;51.352;6.412;2022-11-15T07:28:04;11.50;99.90
25536;DHT22;13431;51.352;6.412;2022-11-15T07:30:51;11.40;99.90
25536;DHT22;13431;51.352;6.412;2022-11-15T07:33:37;11.40;99.90
25536;DHT22;13431;51.352;6.412;2022-11-15T07:36:22;11.30;99.90
25536;DHT22;13431;51.352;6.412;2022-11-15T07:39:09;11.30;99.90
25536;DHT22;13431;51.352;6.412;2022-11-15T07:41:55;11.30;99.90
25536;DHT22;13431;51.352;6.412;2022-11-15T07:45:01;11.40;99.90
25536;DHT22;13431;51.352;6.412;2022-11-15T07:47:48;11.40;99.90
25536;DHT22;13431;51.352;6.412;2022-11-15T07:50:34;11.40;99.90
25536;DHT22;13431;51.352;6.412;2022-11-15T07:53:20;11.40;99.90
25536;DHT22;13431;51.352;6.412;2022-11-15T07:56:06;11.30;99.90
25536;DHT22;13431;51.352;6.412;2022-11-15T07:58:53;11.20;99.90
25536;DHT22;13431;51.352;6.412;2022-11-15T08:01:38;11.10;99.90
25536;DHT22;13431;51.352;6.412;2022-11-15T08:04:24;11.10;99.90
25536;DHT22;13431;51.352;6.412;2022-11-15T08:07:10;11.00;99.90
25536;DHT22;13431;51.352;6.412;2022-11-15T08:09:57;11.00;99.90
25536;DHT22;13431;51.352;6.412;2022-11-15T08:12:43;11.10;99.90
25536;DHT22;13431;51.352;6.412;2022-11-15T08:15:30;11.20;99.90
25536;DHT22;13431;51.352;6.412;2022-11-15T08:18:16;11.30;99.90
25536;DHT22;13431;51.352;6.412;2022-11-15T08:21:03;11.30;99.90
25536;DHT22;13431;51.352;6.412;2022-11-15T08:23:48;11.40;99.90
25536;DHT22;13431;51.352;6.412;2022-11-15T08:26:34;11.50;99.90
25536;DHT22;13431;51.352;6.412;2022-11-15T08:29:20;11.90;99.90
25536;DHT22;13431;51.352;6.412;2022-11-15T08:32:06;12.00;99.90
25536;DHT22;13431;51.352;6.412;2022-11-15T08:34:53;12.10;99.90
25536;DHT22;13431;51.352;6.412;2022-11-15T08:37:39;12.30;99.90
25536;DHT22;13431;51.352;6.412;2022-11-15T08:40:24;12.50;99.90
25536;DHT22;13431;51.352;6.412;2022-11-15T08:43:12;12.80;99.90
25536;DHT22;13431;51.352;6.412;2022-11-15T08:45:58;12.90;99.90
25536;DHT22;13431;51.352;6.412;2022-11-15T08:48:44;12.60;99.90
25536;DHT22;13431;51.352;6.412;2022-11-15T08:51:30;12.60;99.90
25536;DHT22;13431;51.352;6.412;2022-11-15T08:54:16;13.00;99.90
25536;DHT22;13431;51.352;6.412;2022-11-15T08:57:02;13.60;99.90
25536;DHT22;13431;51.352;6.412;2022-11-15T08:59:47;13.70;99.90
25536;DHT22;13431;51.352;6.412;2022-11-15T09:02:33;13.40;99.90
25536;DHT22;13431;51.352;6.412;2022-11-15T09:05:19;13.20;99.90
25536;DHT22;13431;51.352;6.412;2022-11-15T09:08:05;12.90;99.90
25536;DHT22;13431;51.352;6.412;2022-11-15T09:11:11;12.60;99.90
25536;DHT22;13431;51.352;6.412;2022-11-15T09:13:57;12.30;99.90
25536;DHT22;13431;51.352;6.412;2022-11-15T09:16:43;12.30;99.90
25536;DHT22;13431;51.352;6.412;2022-11-15T09:19:29;12.30;99.90
25536;DHT22;13431;51.352;6.412;2022-11-15T09:22:15;12.40;99.90
25536;DHT22;13431;51.352;6.412;2022-11-15T09:25:01;13.20;99.90
25536;DHT22;13431;51.352;6.412;2022-11-15T09:27:46;14.10;99.90
25536;DHT22;13431;51.352;6.412;2022-11-15T09:30:32;14.70;99.90
25536;DHT22;13431;51.352;6.412;2022-11-15T09:33:18;15.20;99.90
25536;DHT22;13431;51.352;6.412;2022-11-15T09:36:07;15.20;99.90
25536;DHT22;13431;51.352;6.412;2022-11-15T09:38:53;15.80;99.90
25536;DHT22;13431;51.352;6.412;2022-11-15T09:45:20;16.60;99.90
25536;DHT22;13431;51.352;6.412;2022-11-15T09:50:59;16.10;99.90
25536;DHT22;13431;51.352;6.412;2022-11-15T09:56:27;16.00;99.90
25536;DHT22;13431;51.352;6.412;2022-11-15T09:59:06;16.00;99.90
25536;DHT22;13431;51.352;6.412;2022-11-15T10:04:43;17.70;99.90
25536;DHT22;13431;51.352;6.412;2022-11-15T10:10:23;19.60;99.90
25536;DHT22;13431;51.352;6.412;2022-11-15T10:12:51;20.60;99.90
25536;DHT22;13431;51.352;6.412;2022-11-15T10:15:20;20.60;99.90
25536;DHT22;13431;51.352;6.412;2022-11-15T10:23:11;21.60;99.90
25536;DHT22;13431;51.352;6.412;2022-11-15T10:25:40;21.00;99.90
25536;DHT22;13431;51.352;6.412;2022-11-15T10:28:31;20.90;99.90
25536;DHT22;13431;51.352;6.412;2022-11-15T10:31:00;20.80;99.90
25536;DHT22;13431;51.352;6.412;2022-11-15T10:33:40;20.40;99.90
25536;DHT22;13431;51.352;6.412;2022-11-15T10:46:36;14.60;99.90
25536;DHT22;13431;51.352;6.412;2022-11-15T10:49:19;14.30;99.90
25536;DHT22;13431;51.352;6.412;2022-11-15T10:52:00;14.20;99.90
25536;DHT22;13431;51.352;6.412;2022-11-15T10:57:10;13.90;99.90
25536;DHT22;13431;51.352;6.412;2022-11-15T10:59:45;13.80;99.90
25536;DHT22;13431;51.352;6.412;2022-11-15T11:02:34;13.90;99.90
25536;DHT22;13431;51.352;6.412;2022-11-15T11:05:37;13.80;99.90
25536;DHT22;13431;51.352;6.412;2022-11-15T11:10:39;13.70;99.90
25536;DHT22;13431;51.352;6.412;2022-11-15T11:13:39;13.60;99.90
25536;DHT22;13431;51.352;6.412;2022-11-15T11:16:50;13.50;99.90
25536;DHT22;13431;51.352;6.412;2022-11-15T11:22:05;13.40;99.90
25536;DHT22;13431;51.352;6.412;2022-11-15T11:24:38;13.30;99.90
25536;DHT22;13431;51.352;6.412;2022-11-15T11:36:15;13.30;99.90
25536;DHT22;13431;51.352;6.412;2022-11-15T11:39:14;13.40;99.90
25536;DHT22;13431;51.352;6.412;2022-11-15T11:41:56;13.50;99.90
25536;DHT22;13431;51.352;6.412;2022-11-15T11:47:11;13.40;99.90
25536;DHT22;13431;51.352;6.412;2022-11-15T11:52:34;13.50;99.90
25536;DHT22;13431;51.352;6.412;2022-11-15T11:55:22;13.50;99.90
25536;DHT22;13431;51.352;6.412;2022-11-15T12:00:28;13.60;99.90
25536;DHT22;13431;51.352;6.412;2022-11-15T12:05:39;13.60;99.90
25536;DHT22;13431;51.352;6.412;2022-11-15T12:08:28;13.60;99.90
25536;DHT22;13431;51.352;6.412;2022-11-15T12:14:08;13.50;99.90
25536;DHT22;13431;51.352;6.412;2022-11-15T12:16:37;13.50;99.90
25536;DHT22;13431;51.352;6.412;2022-11-15T12:19:08;13.50;99.90
25536;DHT22;13431;51.352;6.412;2022-11-15T12:21:44;13.50;99.90
25536;DHT22;13431;51.352;6.412;2022-11-15T12:24:30;13.50;99.90
25536;DHT22;13431;51.352;6.412;2022-11-15T12:27:06;13.60;99.90
25536;DHT22;13431;51.352;6.412;2022-11-15T12:29:49;13.70;99.90
25536;DHT22;13431;51.352;6.412;2022-11-15T12:32:34;13.80;99.90
25536;DHT22;13431;51.352;6.412;2022-11-15T12:35:04;13.70;99.90
25536;DHT22;13431;51.352;6.412;2022-11-15T12:45:43;13.60;99.90
25536;DHT22;13431;51.352;6.412;2022-11-15T12:51:04;13.70;99.90
25536;DHT22;13431;51.352;6.412;2022-11-15T12:53:33;13.70;99.90
25536;DHT22;13431;51.352;6.412;2022-11-15T12:59:00;13.70;99.90
25536;DHT22;13431;51.352;6.412;2022-11-15T13:06:46;13.70;99.90
25536;DHT22;13431;51.352;6.412;2022-11-15T13:12:10;13.60;99.90
25536;DHT22;13431;51.352;6.412;2022-11-15T13:17:37;13.40;99.90
25536;DHT22;13431;51.352;6.412;2022-11-15T13:30:54;13.80;99.90
25536;DHT22;13431;51.352;6.412;2022-11-15T13:33:30;13.60;99.90
25536;DHT22;13431;51.352;6.412;2022-11-15T13:38:38;13.40;99.90
25536;DHT22;13431;51.352;6.412;2022-11-15T13:41:33;13.30;99.90
25536;DHT22;13431;51.352;6.412;2022-11-15T13:44:01;13.30;99.90
25536;DHT22;13431;51.352;6.412;2022-11-15T13:46:31;13.20;99.90
25536;DHT22;13431;51.352;6.412;2022-11-15T13:49:01;13.30;99.90
25536;DHT22;13431;51.352;6.412;2022-11-15T13:51:48;13.40;99.90
25536;DHT22;13431;51.352;6.412;2022-11-15T13:56:52;13.40;99.90
25536;DHT22;13431;51.352;6.412;2022-11-15T13:59:28;13.30;99.90
25536;DHT22;13431;51.352;6.412;2022-11-15T14:01:59;13.30;99.90
25536;DHT22;13431;51.352;6.412;2022-11-15T14:04:29;13.30;99.90
25536;DHT22;13431;51.352;6.412;2022-11-15T14:07:01;13.20;99.90
25536;DHT22;13431;51.352;6.412;2022-11-15T14:09:39;13.20;99.90
25536;DHT22;13431;51.352;6.412;2022-11-15T14:12:49;13.30;99.90
25536;DHT22;13431;51.352;6.412;2022-11-15T14:15:33;13.30;99.90
25536;DHT22;13431;51.352;6.412;2022-11-15T14:18:01;13.40;99.90
25536;DHT22;13431;51.352;6.412;2022-11-15T14:20:35;13.50;99.90
25536;DHT22;13431;51.352;6.412;2022-11-15T14:23:20;13.50;99.90
25536;DHT22;13431;51.352;6.412;2022-11-15T14:25:55;13.50;99.90
25536;DHT22;13431;51.352;6.412;2022-11-15T14:30:53;13.50;99.90
25536;DHT22;13431;51.352;6.412;2022-11-15T14:35:48;13.50;99.90
25536;DHT22;13431;51.352;6.412;2022-11-15T14:38:16;13.40;99.90
25536;DHT22;13431;51.352;6.412;2022-11-15T14:40:44;13.40;99.90
25536;DHT22;13431;51.352;6.412;2022-11-15T14:43:12;13.40;99.90
25536;DHT22;13431;51.352;6.412;2022-11-15T14:45:39;13.40;99.90
25536;DHT22;13431;51.352;6.412;2022-11-15T14:48:07;13.40;99.90
25536;DHT22;13431;51.352;6.412;2022-11-15T14:50:35;13.40;99.90
25536;DHT22;13431;51.352;6.412;2022-11-15T14:53:03;13.40;99.90
25536;DHT22;13431;51.352;6.412;2022-11-15T14:55:35;13.40;99.90
25536;DHT22;13431;51.352;6.412;2022-11-15T14:58:04;13.40;99.90
25536;DHT22;13431;51.352;6.412;2022-11-15T15:00:35;13.30;99.90
25536;DHT22;13431;51.352;6.412;2022-11-15T15:03:04;13.30;99.90
25536;DHT22;13431;51.352;6.412;2022-11-15T15:07:59;13.20;99.90
25536;DHT22;13431;51.352;6.412;2022-11-15T15:10:34;13.20;99.90
25536;DHT22;13431;51.352;6.412;2022-11-15T15:13:23;13.20;99.90
25536;DHT22;13431;51.352;6.412;2022-11-15T15:15:51;13.10;99.90
25536;DHT22;13431;51.352;6.412;2022-11-15T15:18:19;13.20;99.90
25536;DHT22;13431;51.352;6.412;2022-11-15T15:20:56;13.10;99.90
25536;DHT22;13431;51.352;6.412;2022-11-15T15:23:24;13.10;99.90
25536;DHT22;13431;51.352;6.412;2022-11-15T15:25:56;13.00;99.90
25536;DHT22;13431;51.352;6.412;2022-11-15T15:28:24;13.00;99.90
25536;DHT22;13431;51.352;6.412;2022-11-15T15:30:59;13.00;99.90
25536;DHT22;13431;51.352;6.412;2022-11-15T15:33:26;13.00;99.90
25536;DHT22;13431;51.352;6.412;2022-11-15T15:35:53;13.00;99.90
25536;DHT22;13431;51.352;6.412;2022-11-15T15:38:20;13.00;99.90
25536;DHT22;13431;51.352;6.412;2022-11-15T15:40:48;13.00;99.90
25536;DHT22;13431;51.352;6.412;2022-11-15T15:43:17;13.00;99.90
25536;DHT22;13431;51.352;6.412;2022-11-15T15:45:45;13.00;99.90
25536;DHT22;13431;51.352;6.412;2022-11-15T15:48:16;12.90;99.90
25536;DHT22;13431;51.352;6.412;2022-11-15T15:50:44;12.90;99.90
25536;DHT22;13431;51.352;6.412;2022-11-15T15:53:12;12.90;99.90
25536;DHT22;13431;51.352;6.412;2022-11-15T15:55:40;12.90;99.90
25536;DHT22;13431;51.352;6.412;2022-11-15T15:58:08;12.90;99.90
25536;DHT22;13431;51.352;6.412;2022-11-15T16:00:36;12.90;99.90
25536;DHT22;13431;51.352;6.412;2022-11-15T16:03:04;12.90;99.90
25536;DHT22;13431;51.352;6.412;2022-11-15T16:05:31;12.90;99.90
25536;DHT22;13431;51.352;6.412;2022-11-15T16:07:58;12.90;99.90
25536;DHT22;13431;51.352;6.412;2022-11-15T16:10:33;12.90;99.90
25536;DHT22;13431;51.352;6.412;2022-11-15T16:13:03;12.90;99.90
25536;DHT22;13431;51.352;6.412;2022-11-15T16:15:31;12.90;99.90
25536;DHT22;13431;51.352;6.412;2022-11-15T16:18:00;12.80;99.90
25536;DHT22;13431;51.352;6.412;2022-11-15T16:20:40;12.90;99.90
25536;DHT22;13431;51.352;6.412;2022-11-15T16:23:14;12.90;99.90
25536;DHT22;13431;51.352;6.412;2022-11-15T16:25:45;12.80;99.90
25536;DHT22;13431;51.352;6.412;2022-11-15T16:28:32;12.90;99.90
25536;DHT22;13431;51.352;6.412;2022-11-15T16:31:07;12.90;99.90
25536;DHT22;13431;51.352;6.412;2022-11-15T16:33:35;12.90;99.90
25536;DHT22;13431;51.352;6.412;2022-11-15T16:36:05;12.80;99.90
25536;DHT22;13431;51.352;6.412;2022-11-15T16:38:33;12.80;99.90
25536;DHT22;13431;51.352;6.412;2022-11-15T16:41:01;12.90;99.90
25536;DHT22;13431;51.352;6.412;2022-11-15T16:43:28;12.90;99.90
25536;DHT22;13431;51.352;6.412;2022-11-15T16:45:55;13.00;99.90
25536;DHT22;13431;51.352;6.412;2022-11-15T16:48:25;12.90;99.90
25536;DHT22;13431;51.352;6.412;2022-11-15T16:50:57;12.90;99.90
25536;DHT22;13431;51.352;6.412;2022-11-15T16:53:26;12.90;99.90
25536;DHT22;13431;51.352;6.412;2022-11-15T16:55:57;12.90;99.90
25536;DHT22;13431;51.352;6.412;2022-11-15T16:58:24;13.00;99.90
25536;DHT22;13431;51.352;6.412;2022-11-15T17:00:53;13.00;99.90
25536;DHT22;13431;51.352;6.412;2022-11-15T17:03:21;13.10;99.90
25536;DHT22;13431;51.352;6.412;2022-11-15T17:05:49;13.10;99.90
25536;DHT22;13431;51.352;6.412;2022-11-15T17:08:17;13.00;99.90
25536;DHT22;13431;51.352;6.412;2022-11-15T17:10:47;12.90;99.90
25536;DHT22;13431;51.352;6.412;2022-11-15T17:13:14;12.90;99.90
25536;DHT22;13431;51.352;6.412;2022-11-15T17:15:41;12.90;99.90
25536;DHT22;13431;51.352;6.412;2022-11-15T17:18:12;13.00;99.90
25536;DHT22;13431;51.352;6.412;2022-11-15T17:20:41;13.00;99.90
25536;DHT22;13431;51.352;6.412;2022-11-15T17:23:13;13.00;99.90
25536;DHT22;13431;51.352;6.412;2022-11-15T17:25:41;13.00;99.90
25536;DHT22;13431;51.352;6.412;2022-11-15T17:28:09;12.90;99.90
25536;DHT22;13431;51.352;6.412;2022-11-15T17:30:40;12.90;99.90
25536;DHT22;13431;51.352;6.412;2022-11-15T17:33:07;12.90;99.90
25536;DHT22;13431;51.352;6.412;2022-11-15T17:35:34;12.80;99.90
25536;DHT22;13431;51.352;6.412;2022-11-15T17:38:02;12.90;99.90
25536;DHT22;13431;51.352;6.412;2022-11-15T17:40:29;12.80;99.90
25536;DHT22;13431;51.352;6.412;2022-11-15T17:42:56;12.80;99.90
25536;DHT22;13431;51.352;6.412;2022-11-15T17:45:23;12.90;99.90
25536;DHT22;13431;51.352;6.412;2022-11-15T17:47:51;12.80;99.90
25536;DHT22;13431;51.352;6.412;2022-11-15T17:50:19;12.70;99.90
25536;DHT22;13431;51.352;6.412;2022-11-15T17:52:47;12.80;99.90
25536;DHT22;13431;51.352;6.412;2022-11-15T17:55:14;12.70;99.90
25536;DHT22;13431;51.352;6.412;2022-11-15T17:57:42;12.60;99.90
25536;DHT22;13431;51.352;6.412;2022-11-15T18:00:10;12.60;99.90
25536;DHT22;13431;51.352;6.412;2022-11-15T18:02:38;12.60;99.90
25536;DHT22;13431;51.352;6.412;2022-11-15T18:05:06;12.50;99.90
25536;DHT22;13431;51.352;6.412;2022-11-15T18:07:33;12.40;99.90
25536;DHT22;13431;51.352;6.412;2022-11-15T18:10:00;12.40;99.90
25536;DHT22;13431;51.352;6.412;2022-11-15T18:12:28;12.40;99.90
25536;DHT22;13431;51.352;6.412;2022-11-15T18:14:55;12.30;99.90
25536;DHT22;13431;51.352;6.412;2022-11-15T18:17:24;12.10;99.90
25536;DHT22;13431;51.352;6.412;2022-11-15T18:19:51;12.10;99.90
25536;DHT22;13431;51.352;6.412;2022-11-15T18:22:18;11.90;99.90
25536;DHT22;13431;51.352;6.412;2022-11-15T18:24:46;11.90;99.90
25536;DHT22;13431;51.352;6.412;2022-11-15T18:27:14;11.90;99.90
25536;DHT22;13431;51.352;6.412;2022-11-15T18:29:41;11.80;99.90
25536;DHT22;13431;51.352;6.412;2022-11-15T18:32:10;11.80;99.90
25536;DHT22;13431;51.352;6.412;2022-11-15T18:34:38;11.70;99.90
25536;DHT22;13431;51.352;6.412;2022-11-15T18:37:06;11.70;99.90
25536;DHT22;13431;51.352;6.412;2022-11-15T18:39:33;11.70;99.90
25536;DHT22;13431;51.352;6.412;2022-11-15T18:42:01;11.70;99.90
25536;DHT22;13431;51.352;6.412;2022-11-15T18:44:29;11.70;99.90
25536;DHT22;13431;51.352;6.412;2022-11-15T18:46:57;11.60;99.90
25536;DHT22;13431;51.352;6.412;2022-11-15T18:49:24;11.60;99.90
25536;DHT22;13431;51.352;6.412;2022-11-15T18:51:52;11.60;99.90
25536;DHT22;13431;51.352;6.412;2022-11-15T18:54:19;11.50;99.90
25536;DHT22;13431;51.352;6.412;2022-11-15T18:56:46;11.50;99.90
25536;DHT22;13431;51.352;6.412;2022-11-15T18:59:14;11.40;99.90
25536;DHT22;13431;51.352;6.412;2022-11-15T19:01:43;11.40;99.90
25536;DHT22;13431;51.352;6.412;2022-11-15T19:04:17;11.50;99.90
25536;DHT22;13431;51.352;6.412;2022-11-15T19:06:46;11.40;99.90
25536;DHT22;13431;51.352;6.412;2022-11-15T19:09:16;11.50;99.90
25536;DHT22;13431;51.352;6.412;2022-11-15T19:11:45;11.50;99.90
25536;DHT22;13431;51.352;6.412;2022-11-15T19:14:15;11.50;99.90
25536;DHT22;13431;51.352;6.412;2022-11-15T19:16:45;11.50;99.90
25536;DHT22;13431;51.352;6.412;2022-11-15T19:19:18;11.40;99.90
25536;DHT22;13431;51.352;6.412;2022-11-15T19:21:46;11.40;99.90
25536;DHT22;13431;51.352;6.412;2022-11-15T19:24:14;11.50;99.90